メインページ
METAR-TAF:

METAR-TAF

空港 :

ビントゥル空港

Bintulu, マレーシア

緯度: 03-12N, 経度: 113-02E, 海抜: 2m

現時点の気象観測

当レポートは1時間10分前の12:00(UTC)に作成
無風
気温 28°C
湿度 89%
気圧 1009 hPa
視程10km以上
高度1600ftの雲はほとんどない

METAR: WBGB 201200Z 00000KT 9999 FEW016 28/26 Q1009

時間: 21:10 (13:10 UTC)

予報

当レポートは2時間10分前の11:00(UTC)に作成
予報は20日の 12時(UTC)から 21日の 12時(UTC)まで有効
の風 5kt
視程10km以上
高度1600ftの雲はほとんどない

TAF: WBGB 201100Z 2012/2112 35005KT 9999 FEW016

4,000以上の空港の気象観測と天気予報(METAR報とTAF報)

利用可能な観測所は地図上に黄色い丸と赤い丸で示す。

丸の上にカーソルを重ねると観測所名を参照できる。

次にクリックすると気象観測と天気予報を参照できる。

マップの切り替え:黒色「×」印の緑ボタンをクリックして拡大、「-」印の緑ボタンをクリックして縮小、緑色の三角印をクリックして隣りの地図に切り替え


METAR-TAF: